Time;durP1;ratioP1;P1;durP2;ratioP2;P2;SDS_P1;SDS_P2;PMS_P1;PMS_P2;Temp;Humidity;BMP_temperature;BMP_pressure;BME280_temperature;BME280_humidity;BME280_pressure;Samples;Min_cycle;Max_cycle;Signal;HPM_P1;HPM_P2
2022/03/31 00:02:10;;;;;;;;;;;;;;;25.07;37.55;92351.31;4890707;29;7088;-60
2022/03/31 00:04:39;;;;;;;;;;;;;;;25.06;37.39;92355.34;4913889;29;7320;-60
2022/03/31 00:07:05;;;;;;;;;;;;;;;25.07;37.78;92348.56;4912000;29;7212;-60
2022/03/31 00:10:10;;;;;;;;;;;;;;;25.06;37.68;92350.56;4900574;29;8765;-60
2022/03/31 00:12:38;;;;;;;;;;;;;;;25.02;37.72;92346.72;4875680;29;7319;-60
2022/03/31 00:15:14;;;;;;;;;;;;;;;25.03;37.73;92345.47;4864768;29;8785;-60
2022/03/31 00:17:42;;;;;;;;;;;;;;;25.06;37.37;92344.31;4874691;29;9261;-60
2022/03/31 00:20:10;;;;;;;;;;;;;;;25.02;37.86;92341.97;4873481;29;8921;-60
2022/03/31 00:23:06;;;;;;;;;;;;;;;25.00;37.41;92335.56;4864442;29;7365;-60
2022/03/31 00:25:42;;;;;;;;;;;;;;;25.01;38.04;92332.25;4776676;29;7458;-60
2022/03/31 00:28:10;;;;;;;;;;;;;;;25.01;37.75;92335.00;4762659;30;9206;-60
2022/03/31 00:30:48;;;;;;;;;;;;;;;24.99;37.47;92323.09;4749873;30;8182;-60
2022/03/31 00:33:40;;;;;;;;;;;;;;;25.00;37.93;92319.78;4769254;30;6981;-60
2022/03/31 00:36:35;;;;;;;;;;;;;;;25.02;37.74;92310.97;4770211;30;9391;-60
2022/03/31 00:41:48;;;;;;;;;;;;;;;24.99;37.44;92312.81;4773255;30;7131;-60
2022/03/31 00:44:29;;;;;;;;;;;;;;;24.99;37.29;92306.59;4765605;30;9012;-60
2022/03/31 00:47:18;;;;;;;;;;;;;;;24.97;37.21;92298.19;4772771;30;7277;-68
2022/03/31 00:49:45;;;;;;;;;;;;;;;24.97;37.37;92300.94;4785053;29;7659;-68
2022/03/31 00:52:13;;;;;;;;;;;;;;;24.96;37.55;92299.47;4781062;29;9392;-68
2022/03/31 00:54:41;;;;;;;;;;;;;;;24.95;37.88;92293.22;4785764;29;9127;-68
2022/03/31 00:57:12;;;;;;;;;;;;;;;24.97;37.26;92290.63;4784826;29;9199;-68
2022/03/31 00:59:39;;;;;;;;;;;;;;;24.96;37.41;92285.72;4783805;30;7266;-68
2022/03/31 01:02:05;;;;;;;;;;;;;;;24.97;37.73;92287.88;4804693;29;7278;-68
2022/03/31 01:04:34;;;;;;;;;;;;;;;24.99;37.43;92284.59;4845412;29;9012;-68
2022/03/31 01:07:00;;;;;;;;;;;;;;;24.98;37.58;92278.38;4837146;29;9286;-68
2022/03/31 01:09:58;;;;;;;;;;;;;;;24.97;37.41;92274.13;4851283;29;7999;-68
2022/03/31 01:12:26;;;;;;;;;;;;;;;24.98;37.55;92272.13;4858297;29;9063;-68
2022/03/31 01:15:15;;;;;;;;;;;;;;;24.98;36.92;92264.63;4845661;29;9253;-68
2022/03/31 01:17:47;;;;;;;;;;;;;;;24.98;37.00;92261.13;4899609;29;8979;-68
2022/03/31 01:20:28;;;;;;;;;;;;;;;24.97;37.53;92262.44;4883404;29;7526;-68
2022/03/31 01:23:10;;;;;;;;;;;;;;;24.99;37.41;92257.81;4895341;29;7403;-68
2022/03/31 01:25:48;;;;;;;;;;;;;;;25.00;37.76;92255.78;4905609;29;7224;-68
2022/03/31 01:28:34;;;;;;;;;;;;;;;25.00;37.37;92253.03;4891951;29;9408;-68
2022/03/31 01:31:13;;;;;;;;;;;;;;;25.00;37.25;92253.78;4897213;29;8787;-69
2022/03/31 01:33:43;;;;;;;;;;;;;;;24.98;37.23;92247.38;4910481;29;7295;-68
2022/03/31 01:36:20;;;;;;;;;;;;;;;24.99;36.98;92248.84;4896583;29;8986;-69
2022/03/31 01:38:51;;;;;;;;;;;;;;;25.00;36.82;92247.53;4905758;29;7502;-68
2022/03/31 01:41:19;;;;;;;;;;;;;;;24.97;36.92;92232.88;4894428;29;7335;-68
2022/03/31 01:43:55;;;;;;;;;;;;;;;24.99;37.31;92240.59;4890320;29;9351;-68
2022/03/31 01:46:50;;;;;;;;;;;;;;;24.99;36.83;92235.09;4896007;29;8735;-68
2022/03/31 01:49:18;;;;;;;;;;;;;;;24.99;36.80;92240.59;4891702;29;9100;-68
2022/03/31 01:51:54;;;;;;;;;;;;;;;24.99;37.29;92235.09;4876629;29;7086;-68
2022/03/31 01:54:38;;;;;;;;;;;;;;;24.97;37.16;92227.38;4892149;29;8882;-68
2022/03/31 01:57:23;;;;;;;;;;;;;;;24.98;37.00;92230.88;4863357;29;7550;-68
2022/03/31 01:59:49;;;;;;;;;;;;;;;24.98;37.30;92228.88;4876364;29;7282;-68
2022/03/31 02:02:16;;;;;;;;;;;;;;;24.97;36.88;92221.19;4872466;29;9259;-68
2022/03/31 02:04:44;;;;;;;;;;;;;;;24.96;36.66;92222.44;4878454;29;7289;-68
2022/03/31 02:07:10;;;;;;;;;;;;;;;24.93;36.91;92210.53;4883986;29;9466;-68
2022/03/31 02:10:08;;;;;;;;;;;;;;;24.94;37.30;92222.28;4879306;29;9377;-68
2022/03/31 02:12:49;;;;;;;;;;;;;;;24.95;37.00;92212.72;4838648;29;9240;-68
2022/03/31 02:15:29;;;;;;;;;;;;;;;24.94;37.36;92211.28;4839820;29;9169;-67
2022/03/31 02:17:55;;;;;;;;;;;;;;;24.93;37.33;92210.53;4840585;29;7416;-68
2022/03/31 02:20:44;;;;;;;;;;;;;;;24.92;37.34;92205.63;4840441;29;8014;-68
2022/03/31 02:23:20;;;;;;;;;;;;;;;24.93;37.31;92204.31;4824532;29;9537;-68
2022/03/31 02:25:55;;;;;;;;;;;;;;;24.91;37.25;92196.63;4834418;29;8248;-68
2022/03/31 02:28:21;;;;;;;;;;;;;;;24.91;37.22;92198.66;4891608;29;8787;-68
2022/03/31 02:30:48;;;;;;;;;;;;;;;24.90;36.75;92205.44;4886659;29;7473;-68
2022/03/31 02:33:16;;;;;;;;;;;;;;;24.89;37.31;92201.97;4897719;29;7323;-68
2022/03/31 02:35:42;;;;;;;;;;;;;;;24.89;37.08;92204.72;4892854;29;8794;-68
2022/03/31 02:38:25;;;;;;;;;;;;;;;24.87;36.91;92201.06;4878206;29;9678;-68
2022/03/31 02:41:20;;;;;;;;;;;;;;;24.88;37.31;92197.03;4892765;29;7316;-68
2022/03/31 02:43:52;;;;;;;;;;;;;;;24.87;37.14;92190.06;4875601;29;9458;-68
2022/03/31 02:46:28;;;;;;;;;;;;;;;24.87;36.91;92187.31;4859105;29;8794;-68
2022/03/31 02:49:15;;;;;;;;;;;;;;;24.89;37.33;92187.47;4890127;29;8742;-68
2022/03/31 02:51:43;;;;;;;;;;;;;;;24.86;36.91;92183.09;4915007;29;8732;-68
2022/03/31 02:57:14;;;;;;;;;;;;;;;24.88;36.58;92186.03;4932570;29;9767;-68
2022/03/31 02:59:40;;;;;;;;;;;;;;;24.84;36.97;92180.19;4914695;29;8157;-68
2022/03/31 03:02:06;;;;;;;;;;;;;;;24.87;36.92;92179.78;4908371;29;7182;-68
2022/03/31 03:04:32;;;;;;;;;;;;;;;24.84;37.37;92172.66;4931100;29;6986;-68
2022/03/31 03:07:23;;;;;;;;;;;;;;;24.86;36.74;92172.81;4917292;29;8947;-68
2022/03/31 03:10:00;;;;;;;;;;;;;;;24.87;36.80;92179.78;4923071;29;7142;-68
2022/03/31 03:12:57;;;;;;;;;;;;;;;24.84;37.01;92174.69;4916908;29;7203;-69
2022/03/31 03:15:42;;;;;;;;;;;;;;;24.83;37.33;92178.72;4874408;29;8415;-68
2022/03/31 03:18:10;;;;;;;;;;;;;;;24.84;37.08;92174.69;4868794;29;7334;-68
2022/03/31 03:20:36;;;;;;;;;;;;;;;24.83;37.10;92167.72;4866544;29;9100;-68
2022/03/31 03:23:03;;;;;;;;;;;;;;;24.84;36.82;92169.91;4861209;29;6988;-68
2022/03/31 03:25:46;;;;;;;;;;;;;;;24.84;37.00;92169.19;4874738;29;8833;-68
2022/03/31 03:28:44;;;;;;;;;;;;;;;24.83;36.76;92162.22;4867943;29;7313;-68
2022/03/31 03:31:16;;;;;;;;;;;;;;;24.84;36.85;92158.19;4849245;29;7265;-68
2022/03/31 03:34:15;;;;;;;;;;;;;;;24.83;37.09;92154.72;4857178;29;9043;-68
2022/03/31 03:36:52;;;;;;;;;;;;;;;24.84;37.04;92152.69;4820594;29;7263;-68
2022/03/31 03:39:20;;;;;;;;;;;;;;;24.85;37.04;92156.88;4820593;29;9429;-68
2022/03/31 03:41:49;;;;;;;;;;;;;;;24.84;37.01;92158.91;4787276;29;9499;-68
2022/03/31 03:44:34;;;;;;;;;;;;;;;24.84;37.01;92155.44;4805752;29;7211;-68
2022/03/31 03:47:04;;;;;;;;;;;;;;;24.83;36.83;92151.22;4804662;29;9109;-68
2022/03/31 03:49:39;;;;;;;;;;;;;;;24.83;36.79;92153.97;4805332;29;7307;-68
2022/03/31 03:52:05;;;;;;;;;;;;;;;24.81;36.57;92151.78;4839723;29;9090;-68
2022/03/31 03:54:33;;;;;;;;;;;;;;;24.79;37.17;92156.38;4855993;29;7003;-68
2022/03/31 03:56:59;;;;;;;;;;;;;;;24.79;36.96;92156.38;4854631;29;9440;-68
2022/03/31 03:59:25;;;;;;;;;;;;;;;24.79;36.88;92145.38;4853142;29;9166;-68
2022/03/31 04:01:51;;;;;;;;;;;;;;;24.81;36.55;92149.03;4838503;29;8767;-68
2022/03/31 04:04:17;;;;;;;;;;;;;;;24.81;37.10;92145.56;4837705;29;9347;-68
2022/03/31 04:06:43;;;;;;;;;;;;;;;24.80;37.06;92147.56;4861875;29;7208;-68
2022/03/31 04:09:12;;;;;;;;;;;;;;;24.80;37.08;92155.81;4887823;29;9448;-68
2022/03/31 04:11:40;;;;;;;;;;;;;;;24.80;36.45;92153.06;4922633;28;8815;-68
2022/03/31 04:14:08;;;;;;;;;;;;;;;24.79;36.83;92146.13;4936479;28;7717;-68
2022/03/31 04:16:34;;;;;;;;;;;;;;;24.81;36.80;92153.81;4934805;28;8372;-68
2022/03/31 04:19:07;;;;;;;;;;;;;;;24.80;36.42;92147.56;4952436;28;9647;-68
2022/03/31 04:21:35;;;;;;;;;;;;;;;24.80;36.72;92144.09;4950212;28;9110;-68
2022/03/31 04:24:01;;;;;;;;;;;;;;;24.81;36.78;92149.03;4933708;28;7354;-66
2022/03/31 04:26:29;;;;;;;;;;;;;;;24.82;36.37;92147.72;4950563;28;9527;-66
2022/03/31 04:28:55;;;;;;;;;;;;;;;24.83;36.32;92146.47;4941626;28;8456;-66
2022/03/31 04:31:24;;;;;;;;;;;;;;;24.83;37.00;92146.47;4946547;28;7371;-66
2022/03/31 04:33:52;;;;;;;;;;;;;;;24.81;36.92;92138.03;4944208;28;9239;-65
2022/03/31 04:36:27;;;;;;;;;;;;;;;24.82;36.77;92138.75;4939026;28;9119;-66
2022/03/31 04:38:55;;;;;;;;;;;;;;;24.82;36.42;92136.00;4934453;28;9384;-65
2022/03/31 04:41:24;;;;;;;;;;;;;;;24.81;36.76;92140.06;4951800;28;9087;-66
2022/03/31 04:43:51;;;;;;;;;;;;;;;24.81;36.35;92140.78;4933590;28;7202;-66
2022/03/31 04:46:22;;;;;;;;;;;;;;;24.80;36.58;92139.31;4939868;28;9044;-66
2022/03/31 04:48:48;;;;;;;;;;;;;;;24.81;36.99;92132.53;4952107;28;8768;-66
2022/03/31 04:51:14;;;;;;;;;;;;;;;24.79;36.74;92140.63;4952578;28;9273;-66
2022/03/31 04:53:42;;;;;;;;;;;;;;;24.77;36.54;92139.72;4935009;28;8772;-66
2022/03/31 04:56:28;;;;;;;;;;;;;;;24.79;36.16;92134.38;4952195;28;9110;-66
2022/03/31 04:58:53;;;;;;;;;;;;;;;24.80;36.88;92139.31;4936070;28;8733;-66
2022/03/31 05:01:22;;;;;;;;;;;;;;;24.80;36.55;92135.84;4956639;28;9065;-67
2022/03/31 05:03:54;;;;;;;;;;;;;;;24.80;36.66;92131.06;4944888;28;7254;-66
2022/03/31 05:06:20;;;;;;;;;;;;;;;24.80;36.39;92130.34;4938095;28;9107;-67
2022/03/31 05:08:46;;;;;;;;;;;;;;;24.77;36.60;92128.72;4955228;28;7672;-67
2022/03/31 05:11:12;;;;;;;;;;;;;;;24.78;36.31;92130.91;4944834;28;7232;-67
2022/03/31 05:13:40;;;;;;;;;;;;;;;24.78;36.46;92133.66;4948712;28;9113;-66
2022/03/31 05:16:06;;;;;;;;;;;;;;;24.78;36.38;92130.16;4928726;28;7068;-67
2022/03/31 05:18:38;;;;;;;;;;;;;;;24.79;36.92;92134.38;4938681;28;8834;-66
2022/03/31 05:21:06;;;;;;;;;;;;;;;24.77;36.44;92136.97;4932518;28;7304;-66
2022/03/31 05:23:32;;;;;;;;;;;;;;;24.77;35.98;92129.47;4955131;28;7540;-65
2022/03/31 05:25:58;;;;;;;;;;;;;;;24.76;36.31;92130.72;4946815;28;8958;-65
2022/03/31 05:28:39;;;;;;;;;;;;;;;24.73;36.22;92126.31;4937430;28;9083;-65
2022/03/31 05:31:05;;;;;;;;;;;;;;;24.75;36.01;92129.25;4954793;28;7009;-65
2022/03/31 05:33:31;;;;;;;;;;;;;;;24.76;36.53;92130.00;4935344;28;7629;-66
2022/03/31 05:36:06;;;;;;;;;;;;;;;24.79;36.47;92131.63;4943622;28;7353;-66
2022/03/31 05:39:02;;;;;;;;;;;;;;;24.75;36.09;92131.31;4935650;28;9284;-65
2022/03/31 05:41:38;;;;;;;;;;;;;;;24.75;36.33;92131.31;4918345;29;9064;-65
2022/03/31 05:44:14;;;;;;;;;;;;;;;24.77;36.70;92134.97;4919840;29;9147;-66
2022/03/31 05:46:51;;;;;;;;;;;;;;;24.74;35.89;92127.78;4918104;29;7270;-65
2022/03/31 05:49:33;;;;;;;;;;;;;;;24.75;36.24;92128.56;4908378;29;9043;-66
2022/03/31 05:52:02;;;;;;;;;;;;;;;24.79;35.92;92128.88;4927701;29;7253;-65
2022/03/31 05:54:30;;;;;;;;;;;;;;;24.76;35.77;92130.00;4910745;29;9063;-65
2022/03/31 05:57:11;;;;;;;;;;;;;;;24.73;35.80;92131.09;4928189;29;9465;-65
2022/03/31 05:59:38;;;;;;;;;;;;;;;24.75;35.90;92128.56;4922650;29;9359;-65
2022/03/31 06:02:07;;;;;;;;;;;;;;;24.73;35.98;92131.81;4914860;29;9265;-66
2022/03/31 06:04:33;;;;;;;;;;;;;;;24.75;35.83;92128.56;4915020;29;9499;-66
2022/03/31 06:06:59;;;;;;;;;;;;;;;24.74;35.88;92127.78;4912736;29;8917;-66
2022/03/31 06:09:28;;;;;;;;;;;;;;;24.73;35.80;92125.59;4911938;29;9270;-65
2022/03/31 06:11:54;;;;;;;;;;;;;;;24.73;35.75;92125.59;4929271;29;6864;-65
2022/03/31 06:14:30;;;;;;;;;;;;;;;24.73;35.94;92129.81;4920323;29;8737;-65
2022/03/31 06:17:06;;;;;;;;;;;;;;;24.70;37.31;92121.94;4930813;29;10043;-67
2022/03/31 06:19:45;;;;;;;;;;;;;;;24.70;36.40;92119.19;4937993;28;8432;-67
2022/03/31 06:22:12;;;;;;;;;;;;;;;24.72;36.03;92124.88;4953330;28;8866;-67
2022/03/31 06:24:44;;;;;;;;;;;;;;;24.73;36.50;92120.81;4954529;28;9121;-67
2022/03/31 06:27:13;;;;;;;;;;;;;;;24.73;36.64;92121.56;4936895;28;7111;-66
2022/03/31 06:29:45;;;;;;;;;;;;;;;24.73;36.27;92110.56;4935707;28;9717;-66
2022/03/31 06:32:15;;;;;;;;;;;;;;;24.73;36.08;92114.59;4936609;28;9891;-66
2022/03/31 06:34:41;;;;;;;;;;;;;;;24.75;36.61;92117.56;4937529;28;7173;-66
2022/03/31 06:37:35;;;;;;;;;;;;;;;24.73;36.09;92109.13;4937831;28;9227;-66
2022/03/31 06:40:13;;;;;;;;;;;;;;;24.72;36.18;92111.13;4884623;29;8204;-66
2022/03/31 06:42:51;;;;;;;;;;;;;;;24.71;36.59;92112.41;4890811;29;8782;-65
2022/03/31 06:45:20;;;;;;;;;;;;;;;24.71;36.63;92104.16;4879639;29;7158;-66
2022/03/31 06:47:46;;;;;;;;;;;;;;;24.69;36.98;92109.47;4873539;29;8711;-65
2022/03/31 06:50:14;;;;;;;;;;;;;;;24.70;36.74;92111.69;4882190;29;8191;-65
2022/03/31 06:52:43;;;;;;;;;;;;;;;24.68;36.43;92111.50;4872217;29;7375;-65
2022/03/31 06:55:11;;;;;;;;;;;;;;;24.70;36.20;92111.69;4890030;29;7195;-66
2022/03/31 06:57:40;;;;;;;;;;;;;;;24.70;36.54;92108.22;4875320;29;7308;-68
2022/03/31 07:00:07;;;;;;;;;;;;;;;24.74;36.55;92103.03;4887421;29;6964;-69
2022/03/31 07:02:35;;;;;;;;;;;;;;;24.76;36.32;92108.00;4869725;29;7305;-68
2022/03/31 07:05:03;;;;;;;;;;;;;;;24.74;36.38;92108.53;4892714;29;9389;-68
2022/03/31 07:07:32;;;;;;;;;;;;;;;24.75;36.42;92109.31;4893352;29;9161;-68
2022/03/31 07:10:00;;;;;;;;;;;;;;;24.71;36.58;92095.91;4878361;29;7213;-69
2022/03/31 07:12:40;;;;;;;;;;;;;;;24.69;37.07;92103.97;4874196;29;8768;-69
2022/03/31 07:15:19;;;;;;;;;;;;;;;24.66;37.09;92100.34;4881850;29;8765;-69
2022/03/31 07:17:54;;;;;;;;;;;;;;;24.68;37.34;92111.50;4937923;28;9503;-69
2022/03/31 07:20:26;;;;;;;;;;;;;;;24.67;37.41;92106.56;4933161;28;8773;-69
2022/03/31 07:23:02;;;;;;;;;;;;;;;24.67;37.13;92101.81;4935909;28;6864;-69
2022/03/31 07:25:31;;;;;;;;;;;;;;;24.68;37.06;92106.00;4954069;28;7906;-70
2022/03/31 07:27:59;;;;;;;;;;;;;;;24.69;37.53;92101.22;4950174;28;7341;-70
2022/03/31 07:30:29;;;;;;;;;;;;;;;24.69;37.77;92104.72;4935318;28;9222;-69
2022/03/31 07:33:00;;;;;;;;;;;;;;;24.69;37.38;92093.00;4936857;28;7236;-70
2022/03/31 07:35:39;;;;;;;;;;;;;;;24.70;37.14;92094.47;4936948;28;7063;-69
2022/03/31 07:38:19;;;;;;;;;;;;;;;24.69;37.73;92093.72;4936193;28;7478;-70
2022/03/31 07:40:56;;;;;;;;;;;;;;;24.69;37.09;92088.22;4942013;28;9110;-70
2022/03/31 07:43:24;;;;;;;;;;;;;;;24.67;37.71;92093.56;4940988;28;7522;-70
2022/03/31 07:46:06;;;;;;;;;;;;;;;24.69;37.47;92082.72;4937037;29;7271;-70
2022/03/31 07:48:42;;;;;;;;;;;;;;;24.68;37.55;92084.00;4934228;29;7221;-70
2022/03/31 07:51:09;;;;;;;;;;;;;;;24.69;37.82;92082.72;4936841;29;7148;-70
2022/03/31 07:53:38;;;;;;;;;;;;;;;24.70;37.50;92075.22;4945461;28;7855;-69
2022/03/31 07:56:05;;;;;;;;;;;;;;;24.67;37.60;92076.31;4932336;29;9062;-70
2022/03/31 07:58:32;;;;;;;;;;;;;;;24.67;37.65;92073.59;4947156;28;9776;-69
2022/03/31 08:00:58;;;;;;;;;;;;;;;24.67;37.48;92071.56;4950073;28;9436;-69
2022/03/31 08:03:25;;;;;;;;;;;;;;;24.69;37.64;92071.75;4930559;29;7039;-67
2022/03/31 08:05:54;;;;;;;;;;;;;;;24.70;37.73;92069.72;4947475;28;7190;-67
2022/03/31 08:08:20;;;;;;;;;;;;;;;24.69;37.49;92065.50;4947540;28;7102;-70
2022/03/31 08:10:48;;;;;;;;;;;;;;;24.70;37.72;92073.22;4946911;28;8840;-67
2022/03/31 08:13:26;;;;;;;;;;;;;;;24.71;37.34;92073.91;4932725;28;7245;-68
2022/03/31 08:15:56;;;;;;;;;;;;;;;24.71;37.60;92065.66;4951821;28;9169;-68
2022/03/31 08:18:25;;;;;;;;;;;;;;;24.73;37.60;92062.38;4944055;28;9093;-68
2022/03/31 08:20:55;;;;;;;;;;;;;;;24.73;37.50;92063.09;4940514;29;9598;-67
2022/03/31 08:23:27;;;;;;;;;;;;;;;24.75;37.13;92062.56;4952275;29;7312;-68
2022/03/31 08:26:17;;;;;;;;;;;;;;;24.75;37.27;92063.28;4929897;29;9735;-68
2022/03/31 08:28:53;;;;;;;;;;;;;;;24.76;37.42;92059.25;4952991;28;9032;-68
2022/03/31 08:31:27;;;;;;;;;;;;;;;24.73;37.60;92057.59;4944579;28;9116;-69
2022/03/31 08:34:23;;;;;;;;;;;;;;;24.76;37.94;92064.03;4949924;29;7387;-69
2022/03/31 08:36:52;;;;;;;;;;;;;;;24.77;37.46;92065.50;4933587;29;9045;-69
2022/03/31 08:39:22;;;;;;;;;;;;;;;24.78;37.50;92066.94;4945824;29;7165;-69
2022/03/31 08:41:50;;;;;;;;;;;;;;;24.75;37.61;92062.56;4936446;29;9232;-70
2022/03/31 08:44:34;;;;;;;;;;;;;;;24.76;37.37;92064.03;4940180;28;7063;-69
2022/03/31 08:47:02;;;;;;;;;;;;;;;24.77;37.53;92063.47;4927598;28;9553;-69
2022/03/31 08:49:34;;;;;;;;;;;;;;;24.76;37.73;92066.75;4939697;28;7154;-70
2022/03/31 08:52:22;;;;;;;;;;;;;;;24.71;37.24;92047.16;4935940;29;7220;-68
2022/03/31 08:54:50;;;;;;;;;;;;;;;24.78;37.81;92061.44;4943658;28;9193;-69
2022/03/31 08:57:17;;;;;;;;;;;;;;;24.76;37.44;92070.25;4938940;28;7254;-67
2022/03/31 08:59:43;;;;;;;;;;;;;;;24.77;37.91;92054.50;4939685;28;8697;-69
2022/03/31 09:02:21;;;;;;;;;;;;;;;24.79;37.51;92057.41;4944145;28;7296;-68
2022/03/31 09:04:59;;;;;;;;;;;;;;;24.79;37.53;92054.66;4942221;28;7647;-69
2022/03/31 09:07:35;;;;;;;;;;;;;;;24.80;37.97;92058.84;4950167;28;7017;-69
2022/03/31 09:10:04;;;;;;;;;;;;;;;24.81;37.52;92050.06;4940610;28;8954;-69
2022/03/31 09:12:42;;;;;;;;;;;;;;;24.78;37.79;92045.69;4951524;28;8593;-67
2022/03/31 09:15:28;;;;;;;;;;;;;;;24.78;37.69;92051.19;4932330;28;9100;-67
2022/03/31 09:18:01;;;;;;;;;;;;;;;24.78;37.58;92050.44;4920991;29;8183;-68
2022/03/31 09:20:44;;;;;;;;;;;;;;;24.80;37.76;92054.09;4946370;28;8902;-69
2022/03/31 09:23:31;;;;;;;;;;;;;;;24.81;37.80;92044.56;4952257;28;7490;-70
2022/03/31 09:26:12;;;;;;;;;;;;;;;24.80;37.58;92048.59;4950878;28;7946;-69
2022/03/31 09:28:39;;;;;;;;;;;;;;;24.80;37.44;92045.09;4945965;28;9428;-68
2022/03/31 09:31:10;;;;;;;;;;;;;;;24.77;37.56;92044.22;4937555;28;8594;-68
2022/03/31 09:33:40;;;;;;;;;;;;;;;24.77;37.83;92043.50;4938083;28;7292;-68
2022/03/31 09:36:22;;;;;;;;;;;;;;;24.78;37.94;92044.94;4940784;28;7298;-68
2022/03/31 09:39:08;;;;;;;;;;;;;;;24.79;37.55;92047.16;4942890;28;9169;-68
2022/03/31 09:41:37;;;;;;;;;;;;;;;24.77;37.86;92051.75;4928853;28;8986;-68
2022/03/31 09:44:29;;;;;;;;;;;;;;;24.78;37.89;92044.94;4918769;29;9059;-68
2022/03/31 09:47:20;;;;;;;;;;;;;;;24.79;37.74;92052.66;4954525;28;7583;-68
2022/03/31 09:50:16;;;;;;;;;;;;;;;24.78;37.83;92051.19;4938759;28;8241;-68
2022/03/31 09:52:46;;;;;;;;;;;;;;;24.78;37.61;92045.69;4900372;29;9117;-68
2022/03/31 09:55:18;;;;;;;;;;;;;;;24.80;37.43;92036.84;4872339;29;9161;-68
2022/03/31 09:57:49;;;;;;;;;;;;;;;24.79;37.48;92044.41;4903895;29;8997;-67
2022/03/31 10:00:16;;;;;;;;;;;;;;;24.80;37.47;92043.09;4904475;29;7602;-68
2022/03/31 10:02:44;;;;;;;;;;;;;;;24.81;37.40;92038.34;4896670;29;9761;-68
2022/03/31 10:05:12;;;;;;;;;;;;;;;24.81;37.48;92035.59;4886312;29;7215;-68
2022/03/31 10:07:39;;;;;;;;;;;;;;;24.79;37.40;92033.41;4893140;29;7528;-69
2022/03/31 10:10:09;;;;;;;;;;;;;;;24.78;37.84;92034.69;4886151;29;9101;-69
2022/03/31 10:12:56;;;;;;;;;;;;;;;24.77;38.17;92033.25;4886611;29;8776;-69
2022/03/31 10:15:38;;;;;;;;;;;;;;;24.76;37.49;92033.78;4893081;29;7095;-69
2022/03/31 10:18:07;;;;;;;;;;;;;;;24.78;37.75;92028.44;4888738;29;9076;-67
2022/03/31 10:21:02;;;;;;;;;;;;;;;24.78;37.51;92028.44;4893647;29;7280;-69
2022/03/31 10:26:27;;;;;;;;;;;;;;;24.75;37.75;92026.84;4895632;29;7051;-68
2022/03/31 10:29:10;;;;;;;;;;;;;;;24.73;37.60;92016.34;4901391;28;7049;-69
2022/03/31 10:31:45;;;;;;;;;;;;;;;24.75;37.73;92022.06;4938985;28;7124;-69
2022/03/31 10:34:14;;;;;;;;;;;;;;;24.76;38.33;92020.03;4947918;28;8762;-69
2022/03/31 10:36:49;;;;;;;;;;;;;;;24.75;38.33;92015.84;4954852;28;7170;-68
2022/03/31 10:39:19;;;;;;;;;;;;;;;24.73;37.99;92008.84;4937378;28;9155;-68
2022/03/31 10:42:15;;;;;;;;;;;;;;;24.77;38.32;92013.25;4948470;28;6866;-67
2022/03/31 10:44:43;;;;;;;;;;;;;;;24.76;38.90;92009.03;4932874;28;9023;-68
2022/03/31 10:47:09;;;;;;;;;;;;;;;24.73;38.38;92000.59;4949356;28;7281;-67
2022/03/31 10:49:54;;;;;;;;;;;;;;;24.76;37.85;91998.78;4939447;28;9122;-68
2022/03/31 10:52:23;;;;;;;;;;;;;;;24.73;38.41;91997.13;4944225;28;7168;-67
2022/03/31 10:54:53;;;;;;;;;;;;;;;24.78;38.42;91990.69;4937162;28;7184;-68
2022/03/31 10:57:19;;;;;;;;;;;;;;;24.81;38.38;91999.84;4937417;28;9082;-67
2022/03/31 10:59:48;;;;;;;;;;;;;;;24.79;38.71;92002.44;4930636;29;7316;-67
2022/03/31 11:02:19;;;;;;;;;;;;;;;24.80;38.61;92001.13;4933073;28;8991;-68
2022/03/31 11:04:46;;;;;;;;;;;;;;;24.78;38.49;92003.69;4937692;28;6975;-68
2022/03/31 11:07:24;;;;;;;;;;;;;;;24.81;38.59;91991.59;4935924;28;8959;-71
2022/03/31 11:10:11;;;;;;;;;;;;;;;24.80;38.20;91998.38;4932119;28;7071;-69
2022/03/31 11:12:47;;;;;;;;;;;;;;;24.75;38.84;91991.81;4951026;28;7239;-68
2022/03/31 11:15:18;;;;;;;;;;;;;;;24.75;38.91;91997.31;4937024;28;9211;-70
2022/03/31 11:17:47;;;;;;;;;;;;;;;24.75;38.40;91996.59;4943604;28;7254;-68
2022/03/31 11:20:15;;;;;;;;;;;;;;;24.75;38.19;91991.09;4958045;28;8092;-68
2022/03/31 11:22:50;;;;;;;;;;;;;;;24.78;38.24;92000.97;4932038;28;9102;-67
2022/03/31 11:25:18;;;;;;;;;;;;;;;24.78;38.69;91989.97;4948763;28;7461;-68
2022/03/31 11:27:46;;;;;;;;;;;;;;;24.75;39.05;91991.81;4946866;28;7620;-69
2022/03/31 11:30:18;;;;;;;;;;;;;;;24.75;38.84;91988.34;4932179;28;7167;-66
2022/03/31 11:32:48;;;;;;;;;;;;;;;24.75;38.48;91991.09;4935585;28;9611;-67
2022/03/31 11:35:20;;;;;;;;;;;;;;;24.79;38.26;91985.94;4933999;28;8836;-67
2022/03/31 11:37:59;;;;;;;;;;;;;;;24.80;38.13;91987.38;4938235;28;7452;-68
2022/03/31 11:40:41;;;;;;;;;;;;;;;24.81;38.78;91977.84;4943959;28;6947;-67
2022/03/31 11:43:10;;;;;;;;;;;;;;;24.79;38.81;91983.91;4924254;28;8853;-69
2022/03/31 11:45:38;;;;;;;;;;;;;;;24.79;38.55;91980.44;4925427;29;7309;-67
2022/03/31 11:48:05;;;;;;;;;;;;;;;24.78;38.08;91976.22;4949583;29;9714;-67
2022/03/31 11:50:36;;;;;;;;;;;;;;;24.82;37.64;91979.28;4933969;29;9131;-69
2022/03/31 11:53:24;;;;;;;;;;;;;;;24.79;37.88;91974.94;4934062;29;7671;-70
2022/03/31 11:56:05;;;;;;;;;;;;;;;24.83;37.71;91978.00;4937826;29;8769;-69
2022/03/31 11:59:12;;;;;;;;;;;;;;;24.83;38.21;91972.50;4929409;29;7228;-69
2022/03/31 12:01:43;;;;;;;;;;;;;;;24.85;38.10;91978.19;4879563;29;7063;-70
2022/03/31 12:04:21;;;;;;;;;;;;;;;24.83;38.31;91976.00;4882985;29;8654;-69
2022/03/31 12:06:50;;;;;;;;;;;;;;;24.81;37.91;91967.59;4888658;29;7261;-68
2022/03/31 12:09:18;;;;;;;;;;;;;;;24.81;38.27;91972.34;4871106;29;9167;-68
2022/03/31 12:11:58;;;;;;;;;;;;;;;24.83;38.00;91978.00;4866509;29;7982;-68
2022/03/31 12:14:28;;;;;;;;;;;;;;;24.82;38.25;91979.28;4875644;29;8091;-69
2022/03/31 12:17:18;;;;;;;;;;;;;;;24.83;38.07;91978.75;4879132;29;8075;-68
2022/03/31 12:19:44;;;;;;;;;;;;;;;24.81;38.32;91972.34;4872731;29;8829;-69
2022/03/31 12:22:30;;;;;;;;;;;;;;;24.81;38.32;91986.09;4885914;29;7027;-69
2022/03/31 12:24:59;;;;;;;;;;;;;;;24.79;38.30;91983.91;4880714;29;7869;-68
2022/03/31 12:27:44;;;;;;;;;;;;;;;24.81;38.45;91980.59;4894088;29;9792;-69
2022/03/31 12:30:51;;;;;;;;;;;;;;;24.79;38.29;91985.94;4882740;29;8748;-69
2022/03/31 12:33:19;;;;;;;;;;;;;;;24.79;38.32;91980.44;4881096;29;8761;-69
2022/03/31 12:36:15;;;;;;;;;;;;;;;24.79;38.39;91991.44;4893744;29;8659;-70
2022/03/31 12:38:52;;;;;;;;;;;;;;;24.73;38.28;91990.91;4900757;29;7614;-69
2022/03/31 12:41:23;;;;;;;;;;;;;;;24.72;38.32;91984.69;4899259;29;8612;-68
2022/03/31 12:44:00;;;;;;;;;;;;;;;24.71;38.72;91992.19;4902980;29;7287;-69
2022/03/31 12:46:30;;;;;;;;;;;;;;;24.71;38.70;92003.19;4889055;29;7628;-69
2022/03/31 12:49:06;;;;;;;;;;;;;;;24.73;38.98;91988.16;4905137;29;8889;-68
2022/03/31 12:51:52;;;;;;;;;;;;;;;24.76;38.60;91998.03;4901342;29;9398;-67
2022/03/31 12:54:22;;;;;;;;;;;;;;;24.79;38.12;91992.16;4902293;29;9412;-69
2022/03/31 12:56:49;;;;;;;;;;;;;;;24.78;38.63;91989.97;4897259;29;9082;-67
2022/03/31 12:59:17;;;;;;;;;;;;;;;24.75;38.45;91994.56;4903505;29;7471;-68
2022/03/31 13:01:56;;;;;;;;;;;;;;;24.71;38.92;92005.19;4899976;29;9192;-68
2022/03/31 13:04:27;;;;;;;;;;;;;;;24.71;39.46;91992.19;4887777;29;9220;-67
2022/03/31 13:06:53;;;;;;;;;;;;;;;24.73;38.80;91986.84;4900905;29;8094;-69
2022/03/31 13:09:20;;;;;;;;;;;;;;;24.76;39.26;91987.78;4902102;28;9605;-68
2022/03/31 13:11:48;;;;;;;;;;;;;;;24.79;39.14;91983.19;4934786;28;9667;-68
2022/03/31 13:14:14;;;;;;;;;;;;;;;24.78;38.96;91985.19;4934107;28;9142;-67
2022/03/31 13:16:41;;;;;;;;;;;;;;;24.79;39.05;91992.16;4952450;28;7237;-67
2022/03/31 13:19:10;;;;;;;;;;;;;;;24.81;39.11;91994.34;4932919;28;9069;-69
2022/03/31 13:21:36;;;;;;;;;;;;;;;24.79;39.58;91991.44;4944777;28;9021;-69
2022/03/31 13:24:03;;;;;;;;;;;;;;;24.79;39.45;91997.66;4935147;28;9496;-68
2022/03/31 13:26:33;;;;;;;;;;;;;;;24.81;38.89;91988.84;4937847;28;6999;-68
2022/03/31 13:29:05;;;;;;;;;;;;;;;24.80;38.89;91992.88;4923047;29;7285;-66
2022/03/31 13:31:40;;;;;;;;;;;;;;;24.80;39.21;91990.13;4930417;28;9010;-67
2022/03/31 13:34:11;;;;;;;;;;;;;;;24.81;38.75;91999.84;4920598;28;9663;-68
2022/03/31 13:36:38;;;;;;;;;;;;;;;24.79;39.43;91997.66;4939885;28;7280;-67
2022/03/31 13:39:11;;;;;;;;;;;;;;;24.78;39.04;91995.47;4934601;28;9075;-68
2022/03/31 13:41:48;;;;;;;;;;;;;;;24.79;38.84;91996.94;4953616;28;7225;-68